Time;durP1;ratioP1;P1;durP2;ratioP2;P2;SDS_P1;SDS_P2;PMS_P1;PMS_P2;Temp;Humidity;BMP_temperature;BMP_pressure;BME280_temperature;BME280_humidity;BME280_pressure;Samples;Min_cycle;Max_cycle;Signal;HPM_P1;HPM_P2
2024/01/30 00:00:25;;;;;;;6.30;5.80;;;;;;;4.53;55.42;101693.78;5115883;28;20194;-68
2024/01/30 00:02:52;;;;;;;6.57;6.07;;;;;;;4.34;55.52;101688.94;5115434;28;20190;-68
2024/01/30 00:05:19;;;;;;;7.50;6.33;;;;;;;4.37;56.05;101695.78;5115897;28;20463;-68
2024/01/30 00:07:47;;;;;;;6.47;5.87;;;;;;;4.35;55.94;101690.63;5115506;28;20198;-69
2024/01/30 00:10:13;;;;;;;6.97;5.57;;;;;;;4.35;56.23;101693.25;5115667;28;20196;-69
2024/01/30 00:12:40;;;;;;;7.27;5.83;;;;;;;4.39;55.85;101700.00;5115484;28;20260;-69
2024/01/30 00:15:09;;;;;;;6.70;6.20;;;;;;;4.35;56.15;101695.91;5115473;28;20715;-68
2024/01/30 00:17:36;;;;;;;7.57;6.97;;;;;;;4.02;57.06;101706.03;5115832;28;20190;-68
2024/01/30 00:20:05;;;;;;;6.60;6.00;;;;;;;4.12;56.80;101701.81;5114900;28;20764;-69
2024/01/30 00:22:32;;;;;;;6.17;5.57;;;;;;;4.23;56.21;101699.34;5115380;28;20196;-69
2024/01/30 00:25:00;;;;;;;5.87;5.37;;;;;;;4.28;57.00;101697.25;5115366;28;20205;-68
2024/01/30 00:27:27;;;;;;;9.47;6.00;;;;;;;4.21;56.09;101697.75;5115218;28;20191;-68
2024/01/30 00:29:54;;;;;;;6.73;6.13;;;;;;;4.25;56.38;101697.44;5115430;28;20229;-69
2024/01/30 00:32:20;;;;;;;9.00;6.10;;;;;;;4.30;56.59;101700.59;5114865;28;20194;-68
2024/01/30 00:34:47;;;;;;;8.33;7.57;;;;;;;4.33;56.57;101699.56;5115186;28;20187;-69
2024/01/30 00:37:14;;;;;;;6.53;6.10;;;;;;;4.36;56.81;101699.34;5114831;28;20198;-69
2024/01/30 00:39:40;;;;;;;6.30;5.80;;;;;;;4.38;56.51;101692.22;5115056;28;20191;-69
2024/01/30 00:42:09;;;;;;;6.77;6.17;;;;;;;4.41;56.01;101695.47;5115065;28;20276;-68
2024/01/30 00:44:38;;;;;;;6.40;5.80;;;;;;;4.34;56.42;101702.06;5114979;28;20194;-69
2024/01/30 00:47:05;;;;;;;5.70;5.30;;;;;;;4.33;56.54;101695.13;5114621;28;20214;-69
2024/01/30 00:49:32;;;;;;;7.03;6.23;;;;;;;4.35;56.96;101708.19;5115134;28;20195;-70
2024/01/30 00:51:58;;;;;;;6.70;6.00;;;;;;;4.33;56.56;101695.13;5115078;28;20195;-70
2024/01/30 00:54:25;;;;;;;6.07;5.70;;;;;;;4.31;56.51;101702.31;5114749;28;20619;-68
2024/01/30 00:56:52;;;;;;;6.63;6.13;;;;;;;4.23;56.92;101699.34;5114658;28;20198;-70
2024/01/30 00:59:20;;;;;;;6.70;6.03;;;;;;;4.22;57.25;101697.66;5114488;28;20745;-69
2024/01/30 01:01:46;;;;;;;6.43;5.83;;;;;;;4.21;57.55;101698.59;5115194;28;20190;-68
2024/01/30 01:04:13;;;;;;;7.30;6.60;;;;;;;4.23;57.40;101694.09;5114482;28;20198;-68
2024/01/30 01:06:42;;;;;;;8.07;6.80;;;;;;;4.25;57.04;101702.69;5114791;28;20222;-68
2024/01/30 01:09:09;;;;;;;6.80;6.17;;;;;;;4.14;57.67;101702.59;5114709;28;20285;-69
2024/01/30 01:11:36;;;;;;;7.57;6.80;;;;;;;3.98;57.95;101698.41;5114614;28;20187;-68
2024/01/30 01:14:02;;;;;;;8.00;7.20;;;;;;;3.85;58.47;101698.38;5114247;28;20277;-68
2024/01/30 01:16:30;;;;;;;11.40;6.30;;;;;;;3.81;59.98;101691.66;5114484;28;20194;-68
2024/01/30 01:18:57;;;;;;;7.23;6.73;;;;;;;3.80;60.53;101695.19;5114403;28;20244;-68
2024/01/30 01:21:24;;;;;;;6.80;6.20;;;;;;;3.76;60.63;101690.25;5114182;28;20186;-70
2024/01/30 01:23:51;;;;;;;7.17;6.43;;;;;;;3.75;61.30;101685.91;5114362;28;20264;-68
2024/01/30 01:26:17;;;;;;;6.80;6.20;;;;;;;3.64;61.35;101689.25;5114065;28;20276;-67
2024/01/30 01:28:44;;;;;;;6.93;6.33;;;;;;;3.60;62.94;101677.25;5113984;28;20654;-68
2024/01/30 01:31:11;;;;;;;8.00;7.30;;;;;;;3.54;62.80;101672.38;5113979;28;20199;-69
2024/01/30 01:33:39;;;;;;;7.83;6.90;;;;;;;3.43;62.38;101671.41;5113680;28;20190;-68
2024/01/30 01:36:06;;;;;;;8.20;6.87;;;;;;;3.29;62.14;101677.53;5114546;28;20202;-68
2024/01/30 01:38:33;;;;;;;7.83;7.13;;;;;;;3.13;62.69;101671.53;5113641;28;20697;-68
2024/01/30 01:41:00;;;;;;;7.13;6.03;;;;;;;2.95;63.02;101680.56;5114075;28;20476;-68
2024/01/30 01:43:26;;;;;;;6.33;5.87;;;;;;;2.82;63.28;101676.97;5113688;28;20285;-68
2024/01/30 01:45:53;;;;;;;7.07;6.00;;;;;;;2.66;63.45;101670.16;5113936;28;20642;-69
2024/01/30 01:48:20;;;;;;;6.77;5.77;;;;;;;2.48;63.60;101677.34;5113537;28;20195;-70
2024/01/30 01:50:48;;;;;;;12.63;7.10;;;;;;;2.38;65.17;101672.72;5113531;28;20441;-69
2024/01/30 01:53:17;;;;;;;6.90;6.40;;;;;;;2.22;65.24;101675.44;5113585;28;20505;-69
2024/01/30 01:55:44;;;;;;;7.57;6.10;;;;;;;2.00;66.25;101672.34;5113443;28;20506;-69
2024/01/30 01:58:12;;;;;;;12.37;7.27;;;;;;;1.80;67.27;101667.41;5113414;28;20497;-70
2024/01/30 02:00:41;;;;;;;10.23;7.13;;;;;;;1.78;68.15;101678.91;5113889;28;20440;-69
2024/01/30 02:03:10;;;;;;;10.27;7.93;;;;;;;1.73;68.23;101681.81;5112395;28;20440;-68
2024/01/30 02:05:38;;;;;;;9.30;7.70;;;;;;;1.74;69.88;101682.63;5113667;28;20936;-68
2024/01/30 02:08:07;;;;;;;8.73;7.43;;;;;;;1.79;69.38;101681.44;5113409;28;20802;-68
2024/01/30 02:10:34;;;;;;;11.17;7.70;;;;;;;1.87;69.00;101679.22;5112964;28;20508;-68
2024/01/30 02:13:01;;;;;;;10.37;7.30;;;;;;;1.89;69.78;101682.63;5113617;28;20440;-68
2024/01/30 02:15:29;;;;;;;8.43;7.40;;;;;;;1.94;69.18;101680.56;5112025;28;21021;-67
2024/01/30 02:17:55;;;;;;;10.87;8.17;;;;;;;2.01;68.78;101692.41;5112704;28;20467;-70
2024/01/30 02:20:24;;;;;;;9.77;8.27;;;;;;;1.94;68.56;101682.34;5112883;28;20436;-67
2024/01/30 02:22:53;;;;;;;9.07;7.93;;;;;;;1.77;69.12;101682.47;5112756;28;20440;-68
2024/01/30 02:25:20;;;;;;;10.47;7.87;;;;;;;1.63;69.45;101685.84;5113195;28;20461;-68
2024/01/30 02:27:47;;;;;;;9.10;8.20;;;;;;;1.55;71.23;101687.22;5112701;28;20483;-68
2024/01/30 02:30:14;;;;;;;9.57;8.03;;;;;;;1.55;71.08;101688.06;5112378;28;20931;-68
2024/01/30 02:32:40;;;;;;;8.37;7.37;;;;;;;1.56;70.80;101689.78;5112927;28;20509;-69
2024/01/30 02:35:07;;;;;;;9.47;6.70;;;;;;;1.58;71.47;101698.38;5112738;28;20436;-68
2024/01/30 02:37:34;;;;;;;10.30;7.47;;;;;;;1.62;71.76;101704.28;5112400;28;20493;-69
2024/01/30 02:40:02;;;;;;;9.17;7.80;;;;;;;1.53;72.50;101703.03;5112485;28;20436;-70
2024/01/30 02:42:29;;;;;;;9.57;8.50;;;;;;;1.57;72.53;101691.44;5112477;28;20811;-69
2024/01/30 02:44:56;;;;;;;8.30;7.37;;;;;;;1.61;72.28;101700.81;5111913;28;20505;-69
2024/01/30 02:47:22;;;;;;;8.17;7.40;;;;;;;1.62;72.83;101702.50;5112258;28;20480;-69
2024/01/30 02:49:49;;;;;;;9.40;7.83;;;;;;;1.60;72.41;101701.75;5112443;28;20436;-69
2024/01/30 02:52:16;;;;;;;8.27;7.47;;;;;;;1.70;72.60;101702.91;5112217;28;21222;-69
2024/01/30 02:54:42;;;;;;;8.87;7.97;;;;;;;1.75;71.63;101694.81;5112262;28;20509;-69
2024/01/30 02:57:10;;;;;;;8.30;7.50;;;;;;;1.74;72.09;101704.44;5112514;28;20559;-69
2024/01/30 02:59:37;;;;;;;8.80;8.00;;;;;;;1.70;71.32;101702.91;5113001;28;20432;-69
2024/01/30 03:02:04;;;;;;;8.83;8.03;;;;;;;1.67;71.85;101707.50;5111831;28;20448;-69
2024/01/30 03:04:31;;;;;;;12.17;8.97;;;;;;;1.63;73.03;101714.66;5112127;28;20497;-69
2024/01/30 03:06:57;;;;;;;9.20;7.87;;;;;;;1.64;73.19;101712.91;5112149;28;21052;-68
2024/01/30 03:09:24;;;;;;;8.80;7.80;;;;;;;1.61;72.73;101711.31;5112186;28;20454;-68
2024/01/30 03:11:51;;;;;;;9.27;8.20;;;;;;;1.66;71.97;101714.50;5112068;28;20447;-68
2024/01/30 03:14:19;;;;;;;9.60;7.50;;;;;;;1.72;72.91;101711.53;5111932;28;20493;-69
2024/01/30 03:16:45;;;;;;;15.13;9.03;;;;;;;1.70;72.90;101709.94;5112184;28;20489;-69
2024/01/30 03:19:12;;;;;;;9.40;8.37;;;;;;;1.64;72.78;101712.91;5111735;28;20897;-69
2024/01/30 03:21:39;;;;;;;8.97;8.13;;;;;;;1.56;73.87;101710.72;5112157;28;20497;-68
2024/01/30 03:24:06;;;;;;;9.57;7.70;;;;;;;1.57;73.40;101701.91;5111824;28;21012;-68
2024/01/30 03:26:33;;;;;;;9.67;8.77;;;;;;;1.61;74.15;101700.81;5112129;28;20572;-68
2024/01/30 03:28:59;;;;;;;15.13;9.00;;;;;;;1.64;73.19;101697.19;5111734;28;20448;-69
2024/01/30 03:31:27;;;;;;;19.03;8.57;;;;;;;1.57;73.38;101701.91;5111746;28;20444;-69
2024/01/30 03:33:54;;;;;;;9.33;8.13;;;;;;;1.51;73.42;101696.19;5111666;28;20461;-69
2024/01/30 03:36:21;;;;;;;12.20;8.57;;;;;;;1.41;73.78;101703.69;5111812;28;20447;-69
2024/01/30 03:38:48;;;;;;;10.00;9.00;;;;;;;1.38;74.22;101705.66;5111906;28;20439;-68
2024/01/30 03:41:14;;;;;;;11.97;8.77;;;;;;;1.33;74.37;101705.88;5111530;28;20475;-69
2024/01/30 03:43:41;;;;;;;11.60;9.30;;;;;;;1.19;74.93;101712.81;5112047;28;20468;-69
2024/01/30 03:46:08;;;;;;;14.90;9.20;;;;;;;1.03;75.58;101712.78;5112089;28;20444;-68
2024/01/30 03:48:36;;;;;;;9.50;8.57;;;;;;;0.99;75.49;101711.25;5111434;28;20503;-68
2024/01/30 03:51:03;;;;;;;10.33;9.23;;;;;;;0.87;75.49;101704.06;5111613;28;20436;-70
2024/01/30 03:53:30;;;;;;;13.30;9.50;;;;;;;0.79;76.16;101705.38;5111219;28;20943;-69
2024/01/30 03:55:57;;;;;;;10.80;9.43;;;;;;;0.75;76.85;101694.22;5111934;28;20508;-69
2024/01/30 03:58:24;;;;;;;9.60;8.50;;;;;;;0.78;77.04;101694.09;5111622;28;20498;-68
2024/01/30 04:00:50;;;;;;;9.17;7.80;;;;;;;0.71;76.89;101691.84;5111897;28;20447;-68
2024/01/30 04:03:17;;;;;;;9.33;8.37;;;;;;;0.69;77.27;101698.94;5111375;28;21023;-68
2024/01/30 04:05:46;;;;;;;8.30;7.50;;;;;;;0.67;76.65;101712.09;5111572;28;20493;-68
2024/01/30 04:08:13;;;;;;;10.53;8.00;;;;;;;0.49;77.43;101709.56;5111538;28;20560;-68
2024/01/30 04:10:41;;;;;;;12.57;8.73;;;;;;;0.26;78.71;101713.34;5111392;28;20440;-68
2024/01/30 04:13:07;;;;;;;13.30;9.07;;;;;;;0.21;79.17;101706.66;5111082;28;20929;-68
2024/01/30 04:15:34;;;;;;;13.67;9.57;;;;;;;0.17;79.69;101710.34;5111755;28;20436;-68
2024/01/30 04:18:01;;;;;;;10.07;9.17;;;;;;;0.08;80.03;101701.19;5111427;28;20436;-68
2024/01/30 04:20:28;;;;;;;10.17;9.17;;;;;;;0.08;80.56;101695.97;5110623;28;20792;-68
2024/01/30 04:22:56;;;;;;;9.53;8.47;;;;;;;0.13;80.49;101704.44;5111360;28;20452;-70
2024/01/30 04:25:23;;;;;;;9.63;8.67;;;;;;;0.07;80.65;101698.69;5110219;28;20864;-69
2024/01/30 04:27:50;;;;;;;10.77;8.97;;;;;;;0.12;80.78;101707.13;5113739;28;20475;-69
2024/01/30 04:30:16;;;;;;;10.77;9.67;;;;;;;0.04;81.00;101710.09;5115105;28;20441;-69
2024/01/30 04:32:44;;;;;;;13.07;10.37;;;;;;;-0.07;81.76;101705.41;5114963;28;20477;-70
2024/01/30 04:35:11;;;;;;;14.20;9.80;;;;;;;-0.02;82.06;101699.97;5114918;28;20444;-70
2024/01/30 04:37:37;;;;;;;12.43;10.67;;;;;;;0.00;82.38;101719.03;5114815;28;20505;-69
2024/01/30 04:40:08;;;;;;;13.53;10.87;;;;;;;0.01;82.42;101720.72;5114244;28;20463;-69
2024/01/30 04:42:34;;;;;;;19.47;12.90;;;;;;;0.08;82.57;101717.72;5114716;28;20428;-69
2024/01/30 04:45:02;;;;;;;19.77;12.63;;;;;;;0.16;82.59;101722.56;5114129;28;20959;-70
2024/01/30 04:47:29;;;;;;;21.63;12.97;;;;;;;0.20;82.84;101726.72;5114565;28;20482;-70
2024/01/30 04:49:56;;;;;;;16.53;12.47;;;;;;;0.19;82.38;101722.41;5113809;28;21155;-70
2024/01/30 04:52:23;;;;;;;16.07;11.67;;;;;;;0.29;82.96;101734.13;5113771;28;20997;-69
2024/01/30 04:54:49;;;;;;;18.77;11.93;;;;;;;0.39;82.51;101735.34;5113969;28;20493;-69
2024/01/30 04:57:17;;;;;;;15.27;11.30;;;;;;;0.52;82.14;101733.78;5113463;28;20448;-69
2024/01/30 04:59:44;;;;;;;19.37;10.90;;;;;;;0.66;81.75;101739.19;5113909;28;20818;-68
2024/01/30 05:02:11;;;;;;;16.97;10.23;;;;;;;0.86;81.17;101736.34;5114447;28;20440;-68
2024/01/30 05:04:37;;;;;;;21.40;10.53;;;;;;;0.96;80.03;101734.97;5114452;28;20869;-69
2024/01/30 05:07:05;;;;;;;21.20;11.70;;;;;;;0.94;78.77;101736.78;5114595;28;20474;-69
2024/01/30 05:09:31;;;;;;;28.30;13.07;;;;;;;0.98;78.76;101743.56;5113730;28;20443;-72
2024/01/30 05:11:58;;;;;;;27.40;14.37;;;;;;;0.91;78.86;101736.13;5113867;28;20448;-74
2024/01/30 05:14:26;;;;;;;26.70;13.03;;;;;;;1.08;78.73;101750.00;5114112;28;20947;-74
2024/01/30 05:16:53;;;;;;;17.20;11.60;;;;;;;1.14;78.54;101739.19;5113740;28;20459;-74
2024/01/30 05:19:21;;;;;;;22.07;11.77;;;;;;;1.37;78.43;101751.06;5114332;28;20498;-73
2024/01/30 05:21:48;;;;;;;22.97;14.00;;;;;;;1.45;77.42;101749.72;5114123;28;20526;-69
2024/01/30 05:24:14;;;;;;;17.53;11.33;;;;;;;1.58;76.82;101761.22;5113619;28;20444;-69
2024/01/30 05:26:41;;;;;;;19.60;11.73;;;;;;;1.69;76.47;101760.63;5113617;28;20440;-70
2024/01/30 05:29:08;;;;;;;18.00;12.87;;;;;;;1.71;76.10;101762.22;5113242;28;20436;-69
2024/01/30 05:31:36;;;;;;;23.33;11.70;;;;;;;1.66;75.02;101758.16;5113463;28;20472;-68
2024/01/30 05:34:03;;;;;;;23.07;13.03;;;;;;;1.44;75.53;101757.66;5113212;28;20444;-69
2024/01/30 05:36:30;;;;;;;29.43;14.43;;;;;;;1.31;76.70;101747.00;5106309;27;20457;-69
2024/01/30 05:38:57;;;;;;;32.23;17.10;;;;;;;1.34;77.02;101752.06;5101524;28;20987;-69
2024/01/30 05:41:23;;;;;;;24.07;12.80;;;;;;;1.28;76.65;101746.31;5113486;28;20981;-70
2024/01/30 05:43:50;;;;;;;21.10;13.77;;;;;;;1.38;77.95;101748.38;5113393;28;20432;-71
2024/01/30 05:46:17;;;;;;;21.97;13.10;;;;;;;1.31;76.82;101752.22;5113037;28;20444;-69
2024/01/30 05:48:45;;;;;;;17.70;12.80;;;;;;;1.37;76.92;101756.28;5113523;28;20480;-69
2024/01/30 05:51:12;;;;;;;21.50;12.93;;;;;;;1.42;75.79;101744.66;5112732;28;20447;-69
2024/01/30 05:53:38;;;;;;;21.27;12.53;;;;;;;1.44;75.90;101757.66;5113242;28;20440;-70
2024/01/30 05:56:06;;;;;;;34.53;16.27;;;;;;;1.60;76.30;101754.16;5112443;28;20441;-68
2024/01/30 05:58:33;;;;;;;18.47;11.93;;;;;;;1.58;76.45;101750.75;5110892;28;20451;-68
2024/01/30 06:00:59;;;;;;;19.27;12.70;;;;;;;1.62;76.37;101752.28;5110372;28;21054;-68
2024/01/30 06:03:26;;;;;;;27.07;13.63;;;;;;;1.64;75.40;101726.00;5113045;28;20460;-69
2024/01/30 06:05:54;;;;;;;22.90;12.83;;;;;;;1.88;75.61;101753.44;5111707;28;20873;-68
2024/01/30 06:08:21;;;;;;;22.73;13.97;;;;;;;1.99;74.92;101746.66;5112127;28;20583;-69
2024/01/30 06:10:47;;;;;;;30.20;13.43;;;;;;;2.07;74.36;101756.69;5112502;28;20485;-69
2024/01/30 06:13:14;;;;;;;26.00;14.50;;;;;;;2.17;74.56;101750.03;5112263;28;20509;-72
2024/01/30 06:15:40;;;;;;;26.87;13.33;;;;;;;2.33;74.51;101750.84;5112203;28;20451;-71
2024/01/30 06:18:07;;;;;;;27.50;13.47;;;;;;;2.47;73.51;101756.13;5111791;28;20510;-71
2024/01/30 06:20:34;;;;;;;23.13;13.00;;;;;;;2.54;73.64;101754.81;5112273;28;20440;-71
2024/01/30 06:23:02;;;;;;;20.83;12.77;;;;;;;2.61;72.79;101762.22;5112337;28;20497;-71
2024/01/30 06:25:29;;;;;;;24.97;12.07;;;;;;;2.65;73.56;101753.25;5112389;28;20432;-71
2024/01/30 06:27:56;;;;;;;32.37;14.60;;;;;;;2.75;72.86;101764.91;5111148;28;20482;-71
2024/01/30 06:30:22;;;;;;;17.67;12.07;;;;;;;2.84;72.44;101769.59;5112420;28;20432;-71
2024/01/30 06:32:49;;;;;;;21.47;10.47;;;;;;;2.86;72.51;101772.97;5112525;28;20859;-70
2024/01/30 06:35:17;;;;;;;22.40;10.53;;;;;;;2.86;71.82;101772.97;5112004;28;20292;-70
2024/01/30 06:37:44;;;;;;;24.03;10.73;;;;;;;2.77;71.77;101776.16;5111467;28;20551;-70
2024/01/30 06:40:13;;;;;;;19.33;11.73;;;;;;;2.81;72.08;101764.53;5111049;28;20440;-70
2024/01/30 06:42:39;;;;;;;16.67;12.03;;;;;;;2.89;71.64;101772.78;5111007;28;20865;-70
2024/01/30 06:45:07;;;;;;;18.90;10.93;;;;;;;2.80;72.47;101762.84;5111484;28;20435;-71
2024/01/30 06:47:34;;;;;;;13.63;10.33;;;;;;;2.84;72.40;101769.59;5111074;28;20224;-70
2024/01/30 06:50:01;;;;;;;19.23;11.13;;;;;;;2.81;72.47;101767.16;5109866;28;20444;-71
2024/01/30 06:52:28;;;;;;;19.50;11.97;;;;;;;2.86;73.40;101772.97;5110451;28;20440;-71
2024/01/30 06:54:55;;;;;;;21.73;11.90;;;;;;;2.93;73.07;101769.03;5111441;28;20448;-71
2024/01/30 06:57:23;;;;;;;15.50;12.00;;;;;;;2.95;72.64;101771.59;5110979;28;20432;-71
2024/01/30 06:59:50;;;;;;;26.27;12.37;;;;;;;2.98;72.46;101774.84;5111015;28;20940;-70
2024/01/30 07:02:17;;;;;;;17.80;10.90;;;;;;;2.98;72.77;101772.22;5111095;28;20448;-70
2024/01/30 07:04:43;;;;;;;17.20;12.17;;;;;;;2.97;72.22;101775.81;5112076;28;20449;-69
2024/01/30 07:07:12;;;;;;;19.83;11.60;;;;;;;3.03;72.68;101779.84;5110687;28;20239;-71
2024/01/30 07:09:39;;;;;;;20.57;11.60;;;;;;;3.15;72.93;101774.69;5111399;28;20437;-70
2024/01/30 07:12:07;;;;;;;15.53;11.20;;;;;;;3.17;72.03;101772.81;5110985;28;20523;-72
2024/01/30 07:14:35;;;;;;;20.33;12.40;;;;;;;3.19;72.49;101777.97;5111037;28;20435;-71
2024/01/30 07:17:02;;;;;;;24.03;11.80;;;;;;;3.25;71.88;101781.06;5110649;28;20432;-71
2024/01/30 07:19:29;;;;;;;32.50;11.90;;;;;;;3.34;72.29;101780.50;5111024;28;20198;-72
2024/01/30 07:21:55;;;;;;;32.00;14.60;;;;;;;3.34;72.31;101777.88;5110732;28;20436;-72
2024/01/30 07:24:22;;;;;;;26.77;11.47;;;;;;;3.37;72.32;101782.94;5110425;28;20247;-72
2024/01/30 07:26:49;;;;;;;18.83;11.80;;;;;;;3.38;71.45;101778.53;5110340;28;21020;-71
2024/01/30 07:29:15;;;;;;;21.87;12.30;;;;;;;3.34;71.06;101783.13;5110087;28;20221;-73
2024/01/30 07:31:44;;;;;;;22.30;14.47;;;;;;;3.21;70.50;101786.59;5109559;28;20517;-71
2024/01/30 07:34:10;;;;;;;20.10;12.33;;;;;;;3.16;71.11;101784.25;5110161;28;20199;-71
2024/01/30 07:36:37;;;;;;;32.63;15.03;;;;;;;3.25;70.79;101785.47;5110784;28;20875;-71
2024/01/30 07:39:04;;;;;;;22.97;12.40;;;;;;;3.28;70.77;101791.41;5110894;28;20194;-72
2024/01/30 07:41:31;;;;;;;32.87;23.93;;;;;;;3.25;69.76;101786.31;5110124;28;20578;-69
2024/01/30 07:43:58;;;;;;;26.53;12.93;;;;;;;3.00;69.30;101787.91;5110507;28;20190;-69
2024/01/30 07:46:25;;;;;;;21.37;13.53;;;;;;;3.03;69.26;101795.59;5110316;28;20440;-69
2024/01/30 07:48:53;;;;;;;25.17;15.67;;;;;;;3.03;69.07;101795.59;5110747;28;20484;-69
2024/01/30 07:51:19;;;;;;;28.57;13.77;;;;;;;3.19;69.56;101786.69;5109999;28;20686;-70
2024/01/30 07:53:52;;;;;;;29.80;14.70;;;;;;;3.30;67.83;101789.50;5109924;28;20444;-71
2024/01/30 07:56:19;;;;;;;17.47;9.50;;;;;;;3.25;67.50;101791.59;5114133;28;20443;-71
2024/01/30 07:58:46;;;;;;;17.03;10.30;;;;;;;3.05;67.09;101765.69;5111295;28;20447;-72
2024/01/30 08:01:12;;;;;;;14.87;9.90;;;;;;;3.24;66.63;101789.91;5112673;28;20452;-70
2024/01/30 08:03:41;;;;;;;14.73;9.60;;;;;;;3.09;67.68;101775.06;5114299;28;20665;-70
2024/01/30 08:06:10;;;;;;;32.93;9.77;;;;;;;3.31;67.24;101795.63;5114517;28;20517;-71
2024/01/30 08:08:37;;;;;;;9.23;8.07;;;;;;;3.43;66.50;101794.88;5112370;28;20525;-69
2024/01/30 08:11:04;;;;;;;9.77;8.80;;;;;;;3.52;65.83;101789.88;5114123;28;20191;-70
2024/01/30 08:13:31;;;;;;;14.07;8.77;;;;;;;3.67;65.36;101788.91;5114537;28;20446;-71
2024/01/30 08:15:58;;;;;;;7.43;6.73;;;;;;;3.56;64.19;101796.63;5114328;28;20799;-71
2024/01/30 08:18:24;;;;;;;18.03;11.00;;;;;;;3.29;65.14;101793.09;5114516;28;20224;-72
2024/01/30 08:20:51;;;;;;;11.57;8.80;;;;;;;3.35;64.66;101787.44;5113458;28;20251;-73
2024/01/30 08:23:19;;;;;;;9.47;7.60;;;;;;;3.41;64.70;101781.81;5113892;28;20470;-74
2024/01/30 08:25:46;;;;;;;11.97;7.70;;;;;;;3.63;63.91;101786.59;5113675;28;20444;-67
2024/01/30 08:28:13;;;;;;;11.90;10.33;;;;;;;4.35;67.18;101793.25;5113838;28;20479;-72
2024/01/30 08:30:40;;;;;;;21.10;9.57;;;;;;;4.35;62.19;101798.50;5114533;28;20632;-72
2024/01/30 08:33:06;;;;;;;24.97;9.50;;;;;;;4.28;61.70;101797.19;5114438;28;20440;-69
2024/01/30 08:35:33;;;;;;;14.57;10.00;;;;;;;4.22;61.03;101797.63;5115057;28;20204;-70
2024/01/30 08:38:00;;;;;;;28.67;16.00;;;;;;;4.15;61.79;101796.31;5114225;28;20729;-71
2024/01/30 08:40:29;;;;;;;15.03;11.30;;;;;;;3.83;62.63;101779.13;5114109;28;20214;-70
2024/01/30 08:42:56;;;;;;;18.27;9.97;;;;;;;3.92;62.63;101789.03;5114116;28;20679;-69
2024/01/30 08:45:23;;;;;;;9.33;8.40;;;;;;;3.93;62.33;101790.72;5114176;28;20195;-70
2024/01/30 08:47:49;;;;;;;26.23;8.30;;;;;;;4.06;61.37;101789.03;5113806;28;20275;-69
2024/01/30 08:50:16;;;;;;;9.93;7.10;;;;;;;4.20;60.30;101796.84;5113946;28;20222;-70
2024/01/30 08:52:43;;;;;;;7.13;6.43;;;;;;;4.26;59.31;101795.63;5114598;28;20190;-70
2024/01/30 08:55:10;;;;;;;9.07;6.37;;;;;;;4.26;57.94;101796.47;5113621;28;20451;-70
2024/01/30 08:57:38;;;;;;;12.07;6.77;;;;;;;4.20;58.46;101804.75;5114344;28;20191;-70
2024/01/30 09:00:08;;;;;;;10.63;6.50;;;;;;;4.18;58.78;101796.13;5114075;28;20742;-66
2024/01/30 09:02:35;;;;;;;7.23;6.53;;;;;;;4.19;59.35;101799.59;5114063;28;20222;-68
2024/01/30 09:05:02;;;;;;;8.47;6.23;;;;;;;4.17;58.21;101799.69;5114015;28;20711;-69
2024/01/30 09:07:29;;;;;;;11.73;6.70;;;;;;;3.96;59.41;101774.75;5113791;28;20186;-68
2024/01/30 09:09:56;;;;;;;19.00;9.63;;;;;;;4.25;59.56;101794.75;5113917;28;20264;-69
2024/01/30 09:12:22;;;;;;;16.53;9.27;;;;;;;4.41;58.27;101798.09;5113019;28;20730;-69
2024/01/30 09:14:50;;;;;;;11.60;7.53;;;;;;;4.27;58.49;101789.41;5113607;28;20243;-69
2024/01/30 09:17:17;;;;;;;10.93;7.73;;;;;;;4.25;58.47;101792.13;5113272;28;20654;-68
2024/01/30 09:19:44;;;;;;;16.20;9.37;;;;;;;4.35;59.12;101787.97;5113385;28;20195;-68
2024/01/30 09:22:10;;;;;;;36.40;9.57;;;;;;;4.36;57.76;101788.81;5113211;28;20187;-69
2024/01/30 09:24:37;;;;;;;15.00;8.70;;;;;;;4.37;57.04;101791.34;5113809;28;20327;-69
2024/01/30 09:27:04;;;;;;;12.20;7.93;;;;;;;4.29;57.81;101783.09;5113549;28;20195;-67
2024/01/30 09:29:31;;;;;;;10.87;8.20;;;;;;;4.19;57.67;101776.75;5113116;28;20282;-67
2024/01/30 09:31:59;;;;;;;11.17;9.47;;;;;;;3.98;58.30;101772.03;5113348;28;20194;-68
2024/01/30 09:34:26;;;;;;;14.37;9.70;;;;;;;4.10;57.91;101766.84;5112768;28;20230;-69
2024/01/30 09:36:52;;;;;;;19.90;8.67;;;;;;;4.41;57.99;101765.69;5112973;28;20190;-69
2024/01/30 09:39:20;;;;;;;10.27;9.10;;;;;;;4.18;57.53;101763.72;5112753;28;20198;-69
2024/01/30 09:41:50;;;;;;;13.00;9.73;;;;;;;4.03;58.30;101727.88;5113164;28;20235;-68
2024/01/30 09:44:17;;;;;;;15.83;8.63;;;;;;;4.23;58.46;101751.09;5113218;28;20214;-69
2024/01/30 09:46:47;;;;;;;12.57;8.97;;;;;;;4.38;57.82;101753.53;5113025;28;20220;-68
2024/01/30 09:49:17;;;;;;;12.63;9.70;;;;;;;4.40;58.23;101743.78;5113013;28;20214;-69
2024/01/30 09:51:45;;;;;;;13.13;10.40;;;;;;;4.38;58.80;101740.41;5112688;28;20194;-68
2024/01/30 09:54:14;;;;;;;10.43;8.53;;;;;;;4.39;58.40;101741.25;5112264;28;20322;-69
2024/01/30 09:56:41;;;;;;;9.80;8.90;;;;;;;4.27;58.12;101737.66;5112297;28;20628;-68
2024/01/30 09:59:08;;;;;;;10.17;9.17;;;;;;;4.29;58.57;101735.75;5112999;28;20247;-68
2024/01/30 10:01:36;;;;;;;15.87;10.30;;;;;;;4.26;58.74;101741.25;5112401;28;20195;-69
2024/01/30 10:04:02;;;;;;;14.83;10.53;;;;;;;4.38;58.53;101740.41;5112954;28;20497;-69
2024/01/30 10:06:31;;;;;;;13.53;10.07;;;;;;;4.46;57.86;101743.34;5112109;28;20862;-69
2024/01/30 10:08:57;;;;;;;14.83;8.47;;;;;;;4.45;57.55;101736.41;5112148;28;20263;-69
2024/01/30 10:11:24;;;;;;;19.77;9.83;;;;;;;4.46;58.72;101734.63;5112933;28;20205;-69
2024/01/30 10:13:51;;;;;;;9.73;8.10;;;;;;;4.67;57.25;101741.94;5112473;28;20196;-69
2024/01/30 10:16:17;;;;;;;16.27;8.23;;;;;;;4.72;56.17;101741.63;5112342;28;20190;-68
2024/01/30 10:18:44;;;;;;;26.10;7.90;;;;;;;4.77;56.27;101743.00;5112682;28;20195;-69
2024/01/30 10:21:11;;;;;;;9.40;7.70;;;;;;;4.88;56.31;101743.13;5111748;28;20196;-69
2024/01/30 10:23:39;;;;;;;15.77;7.73;;;;;;;4.98;55.84;101736.25;5111831;28;20492;-69
2024/01/30 10:26:08;;;;;;;11.90;7.60;;;;;;;5.14;55.10;101730.75;5111893;28;20252;-69
2024/01/30 10:28:35;;;;;;;11.77;8.33;;;;;;;5.27;54.63;101736.88;5111719;28;20226;-69
2024/01/30 10:31:03;;;;;;;11.20;7.30;;;;;;;5.34;53.65;101738.97;5111992;28;20191;-68
2024/01/30 10:33:30;;;;;;;25.30;8.10;;;;;;;5.41;53.28;101737.59;5111593;28;20194;-68
2024/01/30 10:36:01;;;;;;;13.10;7.97;;;;;;;5.50;52.49;101742.19;5111024;28;20200;-68
2024/01/30 10:38:30;;;;;;;9.03;7.93;;;;;;;5.59;52.33;101738.91;5111317;28;20217;-67
2024/01/30 10:41:00;;;;;;;16.40;8.80;;;;;;;5.62;51.63;101733.41;5110719;28;20228;-68
2024/01/30 10:43:33;;;;;;;25.87;11.70;;;;;;;5.63;51.43;101735.09;5111654;28;20244;-67
2024/01/30 10:46:08;;;;;;;17.80;11.10;;;;;;;5.68;50.95;101726.88;5111589;28;20685;-69
2024/01/30 10:48:39;;;;;;;9.67;7.83;;;;;;;5.78;50.50;101726.09;5111398;28;20233;-68
2024/01/30 10:51:07;;;;;;;8.00;7.20;;;;;;;5.93;50.39;101733.88;5112058;28;20215;-67
2024/01/30 10:53:35;;;;;;;9.57;6.27;;;;;;;6.09;49.01;101731.78;5111288;28;20197;-68
2024/01/30 10:56:04;;;;;;;7.63;6.17;;;;;;;6.20;48.21;101718.66;5110995;28;20234;-67
2024/01/30 10:58:31;;;;;;;6.30;5.70;;;;;;;6.36;47.38;101722.66;5111389;28;20277;-68
2024/01/30 11:00:58;;;;;;;16.23;6.83;;;;;;;6.45;48.03;101710.59;5111276;28;20192;-68
2024/01/30 11:03:26;;;;;;;7.10;6.27;;;;;;;6.61;47.85;101713.75;5111236;28;20190;-69
2024/01/30 11:05:53;;;;;;;9.43;6.37;;;;;;;6.68;47.54;101709.66;5110802;28;20255;-67
2024/01/30 11:08:28;;;;;;;9.77;7.17;;;;;;;6.90;47.04;101709.72;5110753;28;20239;-67
2024/01/30 11:10:57;;;;;;;11.77;7.50;;;;;;;7.12;46.00;101704.44;5111467;28;20196;-69
2024/01/30 11:13:28;;;;;;;7.37;5.83;;;;;;;7.08;45.30;101698.56;5111150;28;20235;-69
2024/01/30 11:15:54;;;;;;;5.93;5.43;;;;;;;7.02;45.38;101695.56;5111882;28;20300;-66
2024/01/30 11:18:25;;;;;;;8.90;5.03;;;;;;;7.12;44.60;101694.72;5111302;28;20620;-66
2024/01/30 11:20:52;;;;;;;9.87;5.33;;;;;;;7.29;44.32;101690.72;5111279;28;20193;-65
2024/01/30 11:23:18;;;;;;;5.37;4.90;;;;;;;7.62;44.64;101688.03;5111189;28;20277;-66
2024/01/30 11:25:45;;;;;;;5.43;4.90;;;;;;;7.93;43.19;101697.81;5111729;28;20193;-67